createdAt,value
2022-07-30T00:01:58.376Z,101071.09
2022-07-30T00:05:01.496Z,101063.28
2022-07-30T00:08:05.039Z,101061.47
2022-07-30T00:11:09.468Z,101058.50
2022-07-30T00:14:14.165Z,101059.81
2022-07-30T00:17:17.157Z,101062.44
2022-07-30T00:20:20.813Z,101060.16
2022-07-30T00:23:23.806Z,101058.63
2022-07-30T00:26:26.872Z,101062.72
2022-07-30T00:29:34.163Z,101063.38
2022-07-30T00:32:37.250Z,101059.75
2022-07-30T00:35:40.656Z,101059.75
2022-07-30T00:38:43.756Z,101054.75
2022-07-30T00:41:59.665Z,101054.09
2022-07-30T00:45:05.143Z,101062.22
2022-07-30T00:48:08.184Z,101065.69
2022-07-30T00:51:11.906Z,101054.59
2022-07-30T00:54:15.631Z,101051.59
2022-07-30T00:57:18.832Z,101046.78
2022-07-30T01:00:23.441Z,101046.44
2022-07-30T01:03:26.506Z,101055.06
2022-07-30T01:06:29.726Z,101042.31
2022-07-30T01:09:32.916Z,101049.06
2022-07-30T01:12:36.310Z,101040.44
2022-07-30T01:15:41.549Z,101048.25
2022-07-30T01:19:05.135Z,101048.72
2022-07-30T01:22:14.239Z,101045.72
2022-07-30T01:25:29.345Z,101045.06
2022-07-30T01:28:40.348Z,101038.94
2022-07-30T01:31:45.585Z,101035.63
2022-07-30T01:34:52.863Z,101042.06
2022-07-30T01:37:57.683Z,101037.44
2022-07-30T01:41:02.196Z,101038.72
2022-07-30T01:44:07.923Z,101038.03
2022-07-30T01:47:14.745Z,101036.38
2022-07-30T01:50:22.725Z,101033.38
2022-07-30T01:53:31.258Z,101028.56
2022-07-30T01:56:38.357Z,101033.38
2022-07-30T01:59:47.272Z,101023.16
2022-07-30T02:02:50.411Z,101029.56
2022-07-30T02:05:58.537Z,101034.03
2022-07-30T02:09:10.876Z,101036.59
2022-07-30T02:12:30.545Z,101037.91
2022-07-30T02:15:47.284Z,101042.53
2022-07-30T02:19:01.158Z,101038.88
2022-07-30T02:22:10.891Z,101041.53
2022-07-30T02:25:20.472Z,101037.22
2022-07-30T02:28:25.625Z,101038.34
2022-07-30T02:31:32.729Z,101032.41
2022-07-30T02:34:40.313Z,101031.22
2022-07-30T02:37:44.568Z,101032.88
2022-07-30T02:40:49.718Z,101022.59
2022-07-30T02:43:54.660Z,101023.44
2022-07-30T02:47:04.686Z,101028.88
2022-07-30T02:50:29.472Z,101017.09
2022-07-30T02:53:35.130Z,101012.81
2022-07-30T02:56:40.005Z,101018.75
2022-07-30T02:59:45.834Z,101017.19
2022-07-30T03:02:51.272Z,101012.91
2022-07-30T03:06:02.324Z,101013.56
2022-07-30T03:09:08.292Z,101004.28
2022-07-30T03:12:13.899Z,101015.38
2022-07-30T03:15:17.375Z,101016.66
2022-07-30T03:18:23.250Z,101021.44
2022-07-30T03:21:28.657Z,101024.38
2022-07-30T03:24:33.480Z,101016.78
2022-07-30T03:27:39.059Z,101022.88
2022-07-30T03:30:44.582Z,101022.19
2022-07-30T03:33:49.932Z,101023.97
2022-07-30T03:36:54.288Z,101024.78
2022-07-30T03:39:59.558Z,101033.91
2022-07-30T03:43:03.597Z,101033.06
2022-07-30T03:46:10.797Z,101038.13
2022-07-30T03:49:19.358Z,101034.44
2022-07-30T03:52:24.841Z,101031.19
2022-07-30T03:55:28.358Z,101034.53
2022-07-30T03:58:49.880Z,101037.81
2022-07-30T04:01:53.376Z,101034.53
2022-07-30T04:05:10.403Z,101029.91
2022-07-30T04:08:14.274Z,101036.22
2022-07-30T04:11:21.570Z,101036.75
2022-07-30T04:14:46.189Z,101042.47
2022-07-30T04:17:58.545Z,101049.56
2022-07-30T04:21:06.960Z,101061.41
2022-07-30T04:24:21.286Z,101053.88
2022-07-30T04:27:25.902Z,101075.75
2022-07-30T04:30:29.257Z,101071.53
2022-07-30T04:33:33.858Z,101079.00
2022-07-30T04:36:54.171Z,101078.00
2022-07-30T04:39:57.855Z,101078.84
2022-07-30T04:43:02.449Z,101076.56
2022-07-30T04:46:05.997Z,101079.19
2022-07-30T04:49:09.419Z,101076.88
2022-07-30T04:52:15.747Z,101075.06
2022-07-30T04:55:21.274Z,101071.22
2022-07-30T04:58:26.558Z,101078.09
2022-07-30T05:01:40.692Z,101076.63
2022-07-30T05:04:47.097Z,101079.91
2022-07-30T05:07:52.367Z,101078.59
2022-07-30T05:10:55.944Z,101065.38
2022-07-30T05:13:59.587Z,101072.94
2022-07-30T05:17:04.966Z,101076.56
2022-07-30T05:20:09.797Z,101073.19
2022-07-30T05:23:30.055Z,101071.59
2022-07-30T05:26:41.549Z,101069.38
2022-07-30T05:29:48.166Z,101065.81
2022-07-30T05:32:55.943Z,101068.31
2022-07-30T05:36:00.288Z,101063.19
2022-07-30T05:39:05.082Z,101056.59
2022-07-30T05:42:17.068Z,101064.19
2022-07-30T05:45:24.674Z,101054.28
2022-07-30T05:48:28.013Z,101064.88
2022-07-30T05:51:31.252Z,101070.88
2022-07-30T05:54:35.951Z,101067.31
2022-07-30T05:57:57.863Z,101073.50
2022-07-30T06:01:02.191Z,101074.41
2022-07-30T06:04:07.464Z,101080.06
2022-07-30T06:07:25.660Z,101082.00
2022-07-30T06:10:32.774Z,101079.91
2022-07-30T06:13:36.198Z,101079.09
2022-07-30T06:16:44.933Z,101078.53
2022-07-30T06:19:48.624Z,101085.59
2022-07-30T06:22:52.149Z,101089.25
2022-07-30T06:26:29.076Z,101091.88
2022-07-30T06:29:32.871Z,101088.84
2022-07-30T06:32:36.878Z,101090.94
2022-07-30T06:35:40.914Z,101092.75
2022-07-30T06:38:44.658Z,101092.03
2022-07-30T06:41:52.461Z,101092.38
2022-07-30T06:44:56.044Z,101099.84
2022-07-30T06:48:02.243Z,101098.91
2022-07-30T06:51:08.056Z,101102.22
2022-07-30T06:54:12.100Z,101107.06
2022-07-30T06:57:52.263Z,101108.13
2022-07-30T07:01:33.308Z,101104.66
2022-07-30T07:04:37.342Z,101106.47
2022-07-30T07:07:43.303Z,101111.09
2022-07-30T07:10:54.429Z,101108.47
2022-07-30T07:14:05.214Z,101117.28
2022-07-30T07:17:12.976Z,101120.41
2022-07-30T07:20:39.411Z,101117.25
2022-07-30T07:23:45.272Z,101115.59
2022-07-30T07:27:15.363Z,101117.06
2022-07-30T07:30:21.717Z,101117.09
2022-07-30T07:33:24.925Z,101102.53
2022-07-30T07:36:28.637Z,101107.84
2022-07-30T07:39:31.917Z,101100.88
2022-07-30T07:42:35.057Z,101108.66
2022-07-30T07:45:39.909Z,101115.09
2022-07-30T07:48:44.740Z,101110.75
2022-07-30T07:52:02.543Z,101115.06
2022-07-30T07:55:07.378Z,101118.31
2022-07-30T07:58:14.687Z,101122.22
2022-07-30T08:01:29.886Z,101123.88
2022-07-30T08:05:06.557Z,101113.59
2022-07-30T08:08:09.614Z,101112.50
2022-07-30T08:11:31.866Z,101111.47
2022-07-30T08:14:55.305Z,101111.16
2022-07-30T08:18:23.488Z,101113.75
2022-07-30T08:21:37.456Z,101118.13
2022-07-30T08:24:40.704Z,101120.78
2022-07-30T08:27:45.509Z,101118.47
2022-07-30T08:30:50.092Z,101122.72
2022-07-30T08:33:55.372Z,101114.94
2022-07-30T08:36:59.525Z,101121.38
2022-07-30T08:40:05.948Z,101113.41
2022-07-30T08:43:10.343Z,101116.19
2022-07-30T08:46:15.542Z,101112.84
2022-07-30T08:49:27.539Z,101120.06
2022-07-30T08:52:33.620Z,101117.41
2022-07-30T08:55:38.124Z,101117.06
2022-07-30T08:58:44.204Z,101121.47
2022-07-30T09:01:53.038Z,101124.81
2022-07-30T09:04:57.725Z,101121.13
2022-07-30T09:08:02.488Z,101112.44
2022-07-30T09:11:05.681Z,101118.47
2022-07-30T09:14:10.935Z,101118.13
2022-07-30T09:17:14.834Z,101115.06
2022-07-30T09:20:20.187Z,101118.28
2022-07-30T09:23:23.982Z,101117.53
2022-07-30T09:26:58.707Z,101118.19
2022-07-30T09:30:20.664Z,101118.50
2022-07-30T09:33:45.146Z,101114.47
2022-07-30T09:37:20.306Z,101117.69
2022-07-30T09:41:04.885Z,101107.31
2022-07-30T09:44:38.186Z,101116.13
2022-07-30T09:47:44.692Z,101115.22
2022-07-30T09:50:50.270Z,101111.69
2022-07-30T09:54:00.205Z,101108.94
2022-07-30T09:57:25.894Z,101113.38
2022-07-30T10:00:35.076Z,101119.59
2022-07-30T10:03:58.208Z,101107.09
2022-07-30T10:07:31.536Z,101117.13
2022-07-30T10:10:50.927Z,101106.16
2022-07-30T10:13:59.328Z,101116.38
2022-07-30T10:17:04.852Z,101112.47
2022-07-30T10:20:12.349Z,101110.16
2022-07-30T10:23:44.209Z,101115.03
2022-07-30T10:27:10.217Z,101111.34
2022-07-30T10:30:29.307Z,101119.72
2022-07-30T10:33:36.619Z,101118.94
2022-07-30T10:36:46.303Z,101123.41
2022-07-30T10:39:57.152Z,101115.25
2022-07-30T10:44:06.426Z,101116.63
2022-07-30T10:47:14.635Z,101117.91
2022-07-30T10:50:22.716Z,101106.69
2022-07-30T10:53:40.787Z,101115.25
2022-07-30T10:56:44.151Z,101113.44
2022-07-30T11:00:15.397Z,101114.28
2022-07-30T11:03:23.479Z,101104.09
2022-07-30T11:06:29.825Z,101108.94
2022-07-30T11:09:40.962Z,101102.00
2022-07-30T11:12:56.628Z,101110.69
2022-07-30T11:16:01.913Z,101110.59
2022-07-30T11:19:55.122Z,101106.78
2022-07-30T11:22:40.364Z,101108.16
2022-07-30T11:25:51.394Z,101111.59
2022-07-30T11:29:00.789Z,101114.16
2022-07-30T11:32:34.443Z,101109.34
2022-07-30T11:35:38.684Z,101109.84
2022-07-30T11:39:06.743Z,101114.31
2022-07-30T11:42:26.738Z,101102.13
2022-07-30T11:45:32.517Z,101107.97
2022-07-30T11:48:38.846Z,101110.31
2022-07-30T11:51:43.138Z,101110.75
2022-07-30T11:54:54.155Z,101101.03
2022-07-30T11:58:01.293Z,101110.88
2022-07-30T12:01:09.034Z,101111.97
2022-07-30T12:04:14.004Z,101102.91
2022-07-30T12:07:23.890Z,101113.56
2022-07-30T12:10:27.791Z,101111.09
2022-07-30T12:13:43.783Z,101109.06
2022-07-30T12:16:51.905Z,101111.31
2022-07-30T12:19:56.263Z,101111.28
2022-07-30T12:22:59.486Z,101113.81
2022-07-30T12:26:03.364Z,101112.13
2022-07-30T12:29:12.220Z,101112.97
2022-07-30T12:32:18.169Z,101117.94
2022-07-30T12:35:22.567Z,101112.53
2022-07-30T12:38:27.816Z,101116.84
2022-07-30T12:41:45.100Z,101117.44
2022-07-30T12:44:49.294Z,101114.59
2022-07-30T12:47:52.338Z,101107.97
2022-07-30T12:51:07.443Z,101115.41
2022-07-30T12:54:20.064Z,101114.94
2022-07-30T12:57:23.423Z,101109.59
2022-07-30T13:00:29.758Z,101106.78
2022-07-30T13:03:39.245Z,101106.69
2022-07-30T13:06:43.731Z,101103.47
2022-07-30T13:09:46.732Z,101109.03
2022-07-30T13:12:50.312Z,101108.50
2022-07-30T13:16:01.946Z,101113.53
2022-07-30T13:19:05.632Z,101112.16
2022-07-30T13:22:10.258Z,101101.91
2022-07-30T13:25:13.739Z,101100.84
2022-07-30T13:28:17.116Z,101099.13
2022-07-30T13:31:20.329Z,101099.50
2022-07-30T13:34:23.586Z,101101.19
2022-07-30T13:37:37.454Z,101109.44
2022-07-30T13:40:42.287Z,101094.06
2022-07-30T13:43:45.693Z,101102.88
2022-07-30T13:46:48.762Z,101103.81
2022-07-30T13:49:51.817Z,101099.50
2022-07-30T13:53:01.469Z,101100.97
2022-07-30T13:56:06.498Z,101098.56
2022-07-30T13:59:15.669Z,101099.78
2022-07-30T14:02:18.768Z,101095.72
2022-07-30T14:05:21.869Z,101090.00
2022-07-30T14:08:28.542Z,101097.97
2022-07-30T14:11:32.456Z,101088.13
2022-07-30T14:14:35.598Z,101094.16
2022-07-30T14:17:38.627Z,101096.94
2022-07-30T14:20:45.561Z,101077.63
2022-07-30T14:23:52.565Z,101076.94
2022-07-30T14:26:58.556Z,101085.47
2022-07-30T14:30:01.936Z,101081.03
2022-07-30T14:33:05.291Z,101082.78
2022-07-30T14:36:08.582Z,101080.69
2022-07-30T14:39:13.044Z,101075.03
2022-07-30T14:42:16.044Z,101072.16
2022-07-30T14:45:19.219Z,101078.69
2022-07-30T14:48:22.400Z,101088.03
2022-07-30T14:51:26.760Z,101088.94
2022-07-30T14:54:32.670Z,101091.06
2022-07-30T14:57:35.900Z,101084.84
2022-07-30T15:00:48.553Z,101089.22
2022-07-30T15:03:52.247Z,101086.75
2022-07-30T15:06:55.305Z,101088.66
2022-07-30T15:10:00.298Z,101083.78
2022-07-30T15:13:03.362Z,101084.19
2022-07-30T15:16:07.222Z,101092.00
2022-07-30T15:19:11.407Z,101094.69
2022-07-30T15:22:14.517Z,101084.56
2022-07-30T15:25:18.990Z,101092.72
2022-07-30T15:28:22.386Z,101078.22
2022-07-30T15:31:25.505Z,101081.41
2022-07-30T15:34:33.897Z,101080.97
2022-07-30T15:37:37.028Z,101074.25
2022-07-30T15:40:42.185Z,101073.16
2022-07-30T15:43:45.290Z,101076.19
2022-07-30T15:46:48.396Z,101066.13
2022-07-30T15:49:52.020Z,101069.72
2022-07-30T15:52:56.900Z,101068.41
2022-07-30T15:56:01.779Z,101066.38
2022-07-30T15:59:05.072Z,101069.28
2022-07-30T16:02:08.606Z,101072.31
2022-07-30T16:05:14.122Z,101070.72
2022-07-30T16:08:17.270Z,101062.91
2022-07-30T16:11:21.872Z,101065.63
2022-07-30T16:14:25.253Z,101066.84
2022-07-30T16:17:28.549Z,101064.91
2022-07-30T16:20:32.015Z,101059.22
2022-07-30T16:23:36.977Z,101060.38
2022-07-30T16:26:44.045Z,101062.84
2022-07-30T16:29:47.698Z,101054.81
2022-07-30T16:32:51.586Z,101063.22
2022-07-30T16:35:55.265Z,101070.44
2022-07-30T16:38:58.256Z,101072.81
2022-07-30T16:42:03.189Z,101062.69
2022-07-30T16:45:07.591Z,101064.97
2022-07-30T16:48:11.180Z,101069.78
2022-07-30T16:51:14.202Z,101067.91
2022-07-30T16:54:17.301Z,101073.47
2022-07-30T16:57:21.601Z,101077.53
2022-07-30T17:00:25.317Z,101074.09
2022-07-30T17:03:28.607Z,101078.41
2022-07-30T17:06:32.254Z,101081.25
2022-07-30T17:09:36.495Z,101080.44
2022-07-30T17:12:41.863Z,101083.50
2022-07-30T17:15:54.085Z,101082.06
2022-07-30T17:18:57.463Z,101086.16
2022-07-30T17:22:01.068Z,101083.94
2022-07-30T17:25:05.030Z,101083.66
2022-07-30T17:28:09.905Z,101083.22
2022-07-30T17:31:12.904Z,101092.25
2022-07-30T17:34:20.314Z,101088.19
2022-07-30T17:37:24.205Z,101089.38
2022-07-30T17:40:31.477Z,101092.59
2022-07-30T17:43:36.319Z,101092.59
2022-07-30T17:46:39.471Z,101102.81
2022-07-30T17:49:43.366Z,101097.00
2022-07-30T17:52:46.340Z,101097.41
2022-07-30T17:55:57.659Z,101096.63
2022-07-30T17:59:02.657Z,101096.63
2022-07-30T18:02:06.599Z,101094.78
2022-07-30T18:05:14.366Z,101098.06
2022-07-30T18:08:17.562Z,101100.50
2022-07-30T18:11:20.555Z,101095.50
2022-07-30T18:14:24.946Z,101104.09
2022-07-30T18:17:28.134Z,101103.69
2022-07-30T18:20:32.852Z,101099.56
2022-07-30T18:23:36.382Z,101105.41
2022-07-30T18:26:40.164Z,101104.03
2022-07-30T18:29:44.641Z,101110.13
2022-07-30T18:32:47.716Z,101102.06
2022-07-30T18:35:50.874Z,101105.28
2022-07-30T18:38:54.064Z,101106.63
2022-07-30T18:41:58.138Z,101113.25
2022-07-30T18:45:02.834Z,101102.91
2022-07-30T18:48:07.152Z,101114.38
2022-07-30T18:51:13.824Z,101119.09
2022-07-30T18:54:18.090Z,101112.22
2022-07-30T18:57:21.244Z,101123.25
2022-07-30T19:00:35.666Z,101128.22
2022-07-30T19:03:39.111Z,101132.25
2022-07-30T19:06:42.505Z,101135.50
2022-07-30T19:09:46.202Z,101138.22
2022-07-30T19:12:49.187Z,101137.03
2022-07-30T19:15:54.023Z,101143.78
2022-07-30T19:18:57.348Z,101143.31
2022-07-30T19:22:00.758Z,101158.91
2022-07-30T19:25:04.527Z,101158.69
2022-07-30T19:28:07.733Z,101154.72
2022-07-30T19:31:12.363Z,101157.84
2022-07-30T19:34:15.446Z,101161.44
2022-07-30T19:37:21.884Z,101162.03
2022-07-30T19:40:28.787Z,101163.84
2022-07-30T19:43:37.233Z,101161.94
2022-07-30T19:46:44.275Z,101173.84
2022-07-30T19:49:47.865Z,101167.06
2022-07-30T19:52:54.265Z,101170.75
2022-07-30T19:55:58.157Z,101162.84
2022-07-30T19:59:14.994Z,101176.31
2022-07-30T20:02:22.619Z,101174.31
2022-07-30T20:05:27.444Z,101177.84
2022-07-30T20:08:34.544Z,101172.22
2022-07-30T20:11:37.948Z,101181.53
2022-07-30T20:14:43.243Z,101181.91
2022-07-30T20:17:47.991Z,101179.94
2022-07-30T20:20:51.018Z,101175.66
2022-07-30T20:23:54.081Z,101175.69
2022-07-30T20:26:57.670Z,101174.69
2022-07-30T20:30:02.807Z,101176.22
2022-07-30T20:33:07.316Z,101172.09
2022-07-30T20:36:10.414Z,101177.06
2022-07-30T20:39:18.380Z,101169.78
2022-07-30T20:42:24.216Z,101176.41
2022-07-30T20:45:40.366Z,101174.38
2022-07-30T20:48:45.172Z,101175.38
2022-07-30T20:51:50.363Z,101160.13
2022-07-30T20:54:53.495Z,101165.78
2022-07-30T20:58:07.888Z,101167.06
2022-07-30T21:01:17.460Z,101166.56
2022-07-30T21:04:23.701Z,101165.22
2022-07-30T21:07:36.726Z,101158.13
2022-07-30T21:10:44.702Z,101157.91
2022-07-30T21:13:47.932Z,101153.44
2022-07-30T21:16:55.662Z,101148.44
2022-07-30T21:20:01.167Z,101152.78
2022-07-30T21:23:11.530Z,101152.44
2022-07-30T21:26:14.736Z,101155.69
2022-07-30T21:29:19.149Z,101144.06
2022-07-30T21:32:25.709Z,101149.00
2022-07-30T21:35:32.168Z,101146.66
2022-07-30T21:38:35.557Z,101148.47
2022-07-30T21:41:40.923Z,101147.16
2022-07-30T21:44:44.086Z,101141.97
2022-07-30T21:47:48.876Z,101146.75
2022-07-30T21:50:53.543Z,101140.59
2022-07-30T21:53:57.865Z,101143.56
2022-07-30T21:57:01.141Z,101140.53
2022-07-30T22:00:10.715Z,101143.16
2022-07-30T22:04:01.109Z,101141.44
2022-07-30T22:06:41.718Z,101143.06
2022-07-30T22:09:44.807Z,101148.91
2022-07-30T22:12:48.200Z,101145.59
2022-07-30T22:15:52.495Z,101137.31
2022-07-30T22:18:56.035Z,101127.06
2022-07-30T22:22:05.284Z,101133.47
2022-07-30T22:25:23.602Z,101139.28
2022-07-30T22:28:42.966Z,101134.66
2022-07-30T22:31:48.181Z,101131.66
2022-07-30T22:34:51.241Z,101127.97
2022-07-30T22:37:55.563Z,101124.97
2022-07-30T22:40:59.777Z,101124.06
2022-07-30T22:44:03.227Z,101117.06
2022-07-30T22:47:10.174Z,101126.81
2022-07-30T22:50:26.221Z,101128.09
2022-07-30T22:54:11.260Z,101126.06
2022-07-30T22:56:54.604Z,101124.41
2022-07-30T23:00:00.273Z,101113.09
2022-07-30T23:03:04.090Z,101111.44
2022-07-30T23:06:14.758Z,101118.38
2022-07-30T23:09:20.929Z,101109.84
2022-07-30T23:12:24.023Z,101108.31
2022-07-30T23:15:27.000Z,101109.59
2022-07-30T23:18:30.038Z,101102.06
2022-07-30T23:21:34.866Z,101109.69
2022-07-30T23:24:39.276Z,101100.41
2022-07-30T23:27:43.447Z,101104.69
2022-07-30T23:30:46.605Z,101095.31
2022-07-30T23:33:49.561Z,101102.56
2022-07-30T23:36:52.516Z,101105.28
2022-07-30T23:39:59.260Z,101098.03
2022-07-30T23:43:02.284Z,101088.91
2022-07-30T23:46:09.559Z,101096.75
2022-07-30T23:49:14.417Z,101089.88
2022-07-30T23:52:17.536Z,101082.84
2022-07-30T23:55:22.224Z,101082.00
2022-07-30T23:58:25.224Z,101082.59
